createdAt,value
2022-11-25T00:01:41.591Z,8.79
2022-11-25T00:04:09.581Z,8.81
2022-11-25T00:06:37.639Z,8.80
2022-11-25T00:09:07.727Z,8.76
2022-11-25T00:11:36.113Z,8.76
2022-11-25T00:14:04.079Z,8.75
2022-11-25T00:16:32.113Z,8.85
2022-11-25T00:19:00.139Z,8.86
2022-11-25T00:21:29.179Z,8.70
2022-11-25T00:23:57.958Z,8.78
2022-11-25T00:26:27.805Z,8.78
2022-11-25T00:28:57.679Z,8.77
2022-11-25T00:31:26.634Z,8.78
2022-11-25T00:33:54.652Z,8.74
2022-11-25T00:36:23.997Z,8.75
2022-11-25T00:38:54.290Z,8.76
2022-11-25T00:41:39.447Z,8.73
2022-11-25T00:44:27.285Z,8.78
2022-11-25T00:46:55.250Z,8.81
2022-11-25T00:49:23.323Z,8.79
2022-11-25T00:51:51.378Z,8.82
2022-11-25T00:54:19.519Z,8.92
2022-11-25T00:56:47.572Z,8.89
2022-11-25T00:59:16.960Z,8.88
2022-11-25T01:01:45.027Z,8.88
2022-11-25T01:04:13.092Z,8.94
2022-11-25T01:06:41.012Z,8.96
2022-11-25T01:09:09.085Z,9.03
2022-11-25T01:11:37.063Z,8.98
2022-11-25T01:14:05.006Z,8.94
2022-11-25T01:16:34.361Z,9.01
2022-11-25T01:19:02.473Z,8.96
2022-11-25T01:21:31.458Z,8.99
2022-11-25T01:24:00.340Z,8.90
2022-11-25T01:26:28.536Z,8.96
2022-11-25T01:28:57.292Z,8.92
2022-11-25T01:31:26.361Z,8.89
2022-11-25T01:33:56.883Z,8.85
2022-11-25T01:36:24.899Z,8.86
2022-11-25T01:38:53.582Z,8.85
2022-11-25T01:41:22.252Z,8.81
2022-11-25T01:44:11.074Z,8.89
2022-11-25T01:46:56.288Z,8.83
2022-11-25T01:49:30.043Z,8.79
2022-11-25T01:52:00.427Z,8.81
2022-11-25T01:54:29.525Z,8.67
2022-11-25T01:56:59.750Z,8.85
2022-11-25T01:59:27.807Z,8.84
2022-11-25T02:01:55.852Z,8.88
2022-11-25T02:04:24.183Z,8.90
2022-11-25T02:06:54.993Z,8.91
2022-11-25T02:09:23.185Z,8.83
2022-11-25T02:11:51.178Z,8.88
2022-11-25T02:14:19.345Z,8.84
2022-11-25T02:16:47.364Z,8.82
2022-11-25T02:19:18.111Z,8.90
2022-11-25T02:21:48.580Z,8.85
2022-11-25T02:24:19.821Z,8.81
2022-11-25T02:26:49.215Z,8.73
2022-11-25T02:29:17.181Z,8.76
2022-11-25T02:31:45.261Z,8.74
2022-11-25T02:34:13.254Z,8.67
2022-11-25T02:36:41.198Z,8.78
2022-11-25T02:39:09.163Z,8.69
2022-11-25T02:41:38.663Z,8.70
2022-11-25T02:44:07.971Z,8.73
2022-11-25T02:46:35.954Z,8.78
2022-11-25T02:49:11.393Z,8.75
2022-11-25T02:51:39.984Z,8.70
2022-11-25T02:54:07.996Z,8.75
2022-11-25T02:56:36.325Z,8.76
2022-11-25T02:59:04.488Z,8.75
2022-11-25T03:01:35.364Z,8.69
2022-11-25T03:04:03.568Z,8.71
2022-11-25T03:06:31.550Z,8.76
2022-11-25T03:08:59.543Z,8.69
2022-11-25T03:11:47.639Z,8.67
2022-11-25T03:14:15.550Z,8.67
2022-11-25T03:16:44.993Z,8.68
2022-11-25T03:19:13.001Z,8.66
2022-11-25T03:21:40.917Z,8.69
2022-11-25T03:24:08.980Z,8.66
2022-11-25T03:26:36.957Z,8.59
2022-11-25T03:29:04.934Z,8.65
2022-11-25T03:31:32.915Z,8.67
2022-11-25T03:34:02.257Z,8.67
2022-11-25T03:36:30.209Z,8.61
2022-11-25T03:38:58.194Z,8.56
2022-11-25T03:41:26.162Z,8.52
2022-11-25T03:43:54.155Z,8.50
2022-11-25T03:46:22.166Z,8.50
2022-11-25T03:48:50.231Z,8.44
2022-11-25T03:51:19.562Z,8.49
2022-11-25T03:53:47.529Z,8.41
2022-11-25T03:56:15.613Z,8.41
2022-11-25T03:58:43.562Z,8.34
2022-11-25T04:01:11.760Z,8.33
2022-11-25T04:03:39.780Z,8.30
2022-11-25T04:06:07.838Z,8.25
2022-11-25T04:08:37.208Z,8.29
2022-11-25T04:11:05.139Z,8.23
2022-11-25T04:13:32.114Z,8.19
2022-11-25T04:16:00.095Z,8.21
2022-11-25T04:18:28.042Z,8.18
2022-11-25T04:20:56.016Z,8.15
2022-11-25T04:23:23.966Z,8.20
2022-11-25T04:25:53.343Z,8.33
2022-11-25T04:28:21.332Z,8.38
2022-11-25T04:30:49.288Z,8.38
2022-11-25T04:33:17.372Z,8.35
2022-11-25T04:35:45.476Z,8.31
2022-11-25T04:38:13.488Z,8.31
2022-11-25T04:40:41.547Z,8.24
2022-11-25T04:43:10.976Z,8.25
2022-11-25T04:46:06.191Z,8.22
2022-11-25T04:48:26.880Z,8.20
2022-11-25T04:50:54.844Z,8.16
2022-11-25T04:53:22.787Z,8.29
2022-11-25T04:55:50.754Z,8.23
2022-11-25T04:58:40.078Z,8.22
2022-11-25T05:01:07.038Z,8.21
2022-11-25T05:03:34.993Z,8.23
2022-11-25T05:06:07.219Z,8.25
2022-11-25T05:08:35.214Z,8.30
2022-11-25T05:11:03.243Z,8.31
2022-11-25T05:13:32.676Z,8.39
2022-11-25T05:16:01.146Z,8.33
2022-11-25T05:18:29.182Z,8.36
2022-11-25T05:20:57.185Z,8.33
2022-11-25T05:23:25.238Z,8.31
2022-11-25T05:25:53.186Z,8.36
2022-11-25T05:28:21.309Z,8.35
2022-11-25T05:30:50.725Z,8.43
2022-11-25T05:33:18.722Z,8.41
2022-11-25T05:35:46.700Z,8.39
2022-11-25T05:38:14.686Z,8.35
2022-11-25T05:40:42.574Z,8.36
2022-11-25T05:43:10.544Z,8.36
2022-11-25T05:45:39.740Z,8.41
2022-11-25T05:48:09.258Z,8.50
2022-11-25T05:50:37.962Z,8.60
2022-11-25T05:53:05.952Z,8.60
2022-11-25T05:55:33.969Z,8.56
2022-11-25T05:58:03.168Z,8.61
2022-11-25T06:00:31.166Z,8.66
2022-11-25T06:02:59.306Z,8.62
2022-11-25T06:05:28.694Z,8.64
2022-11-25T06:07:56.701Z,8.63
2022-11-25T06:10:24.651Z,8.54
2022-11-25T06:12:53.748Z,8.57
2022-11-25T06:15:21.906Z,8.56
2022-11-25T06:17:49.852Z,8.50
2022-11-25T06:20:18.068Z,8.39
2022-11-25T06:22:47.531Z,8.31
2022-11-25T06:25:15.544Z,8.34
2022-11-25T06:28:11.259Z,8.36
2022-11-25T06:30:31.415Z,8.23
2022-11-25T06:32:59.376Z,8.25
2022-11-25T06:35:27.343Z,8.13
2022-11-25T06:37:56.692Z,8.06
2022-11-25T06:40:24.714Z,8.06
2022-11-25T06:42:52.800Z,8.04
2022-11-25T06:45:20.795Z,8.10
2022-11-25T06:47:48.808Z,8.11
2022-11-25T06:50:16.968Z,8.16
2022-11-25T06:52:44.933Z,8.13
2022-11-25T06:55:14.367Z,8.14
2022-11-25T06:57:42.324Z,8.19
2022-11-25T07:00:10.861Z,8.15
2022-11-25T07:02:44.066Z,8.19
2022-11-25T07:05:13.413Z,8.26
2022-11-25T07:07:41.382Z,8.26
2022-11-25T07:10:10.332Z,8.25
2022-11-25T07:12:39.924Z,8.33
2022-11-25T07:15:08.493Z,8.33
2022-11-25T07:17:36.565Z,8.36
2022-11-25T07:20:04.905Z,8.35
2022-11-25T07:22:32.839Z,8.48
2022-11-25T07:25:00.867Z,8.56
2022-11-25T07:27:28.841Z,8.78
2022-11-25T07:30:41.069Z,8.95
2022-11-25T07:32:46.135Z,9.20
2022-11-25T07:35:14.202Z,9.36
2022-11-25T07:37:42.296Z,9.53
2022-11-25T07:40:11.006Z,9.56
2022-11-25T07:42:38.951Z,9.64
2022-11-25T07:45:09.358Z,9.60
2022-11-25T07:47:37.339Z,9.43
2022-11-25T07:50:05.817Z,9.38
2022-11-25T07:52:33.868Z,9.42
2022-11-25T07:55:01.818Z,9.46
2022-11-25T07:57:30.240Z,9.38
2022-11-25T07:59:58.173Z,9.34
2022-11-25T08:02:27.572Z,9.38
2022-11-25T08:04:55.626Z,9.46
2022-11-25T08:07:23.671Z,9.50
2022-11-25T08:09:52.588Z,9.44
2022-11-25T08:12:20.580Z,9.52
2022-11-25T08:14:48.648Z,9.68
2022-11-25T08:17:16.570Z,9.75
2022-11-25T08:19:45.915Z,9.72
2022-11-25T08:22:14.005Z,9.47
2022-11-25T08:24:42.176Z,9.42
2022-11-25T08:27:10.117Z,9.47
2022-11-25T08:29:38.167Z,9.54
2022-11-25T08:32:11.771Z,9.47
2022-11-25T08:34:40.161Z,9.64
2022-11-25T08:37:09.675Z,9.84
2022-11-25T08:39:52.444Z,9.71
2022-11-25T08:42:21.031Z,9.89
2022-11-25T08:44:53.102Z,10.13
2022-11-25T08:47:21.075Z,10.18
2022-11-25T08:49:51.843Z,10.51
2022-11-25T08:52:21.220Z,10.85
2022-11-25T08:54:49.186Z,11.08
2022-11-25T08:57:17.247Z,11.23
2022-11-25T08:59:45.178Z,11.11
2022-11-25T09:02:14.412Z,11.35
2022-11-25T09:04:42.468Z,11.81
2022-11-25T09:07:10.546Z,12.03
2022-11-25T09:09:40.176Z,11.51
2022-11-25T09:12:08.359Z,11.68
2022-11-25T09:14:36.392Z,11.49
2022-11-25T09:17:05.132Z,11.70
2022-11-25T09:19:33.334Z,11.48
2022-11-25T09:22:01.380Z,11.65
2022-11-25T09:24:29.367Z,12.02
2022-11-25T09:26:58.671Z,12.28
2022-11-25T09:29:27.844Z,12.14
2022-11-25T09:31:55.838Z,11.93
2022-11-25T09:34:23.848Z,11.69
2022-11-25T09:36:51.828Z,11.60
2022-11-25T09:39:19.814Z,11.66
2022-11-25T09:42:16.199Z,11.88
2022-11-25T09:45:07.196Z,11.85
2022-11-25T09:47:42.316Z,11.79
2022-11-25T09:50:17.616Z,11.83
2022-11-25T09:52:49.697Z,11.75
2022-11-25T09:55:18.833Z,11.81
2022-11-25T09:57:59.688Z,11.73
2022-11-25T10:00:39.178Z,11.72
2022-11-25T10:03:08.588Z,11.64
2022-11-25T10:05:40.595Z,11.52
2022-11-25T10:08:11.290Z,11.25
2022-11-25T10:10:42.690Z,11.47
2022-11-25T10:13:15.491Z,11.45
2022-11-25T10:15:45.449Z,11.33
2022-11-25T10:18:16.626Z,11.62
2022-11-25T10:20:44.725Z,11.73
2022-11-25T10:23:13.942Z,11.74
2022-11-25T10:25:46.240Z,11.74
2022-11-25T10:28:18.989Z,11.82
2022-11-25T10:30:51.017Z,11.67
2022-11-25T10:33:20.951Z,11.89
2022-11-25T10:35:50.832Z,12.15
2022-11-25T10:38:21.791Z,12.47
2022-11-25T10:40:51.073Z,12.53
2022-11-25T10:43:20.863Z,12.69
2022-11-25T10:45:50.623Z,12.41
2022-11-25T10:48:24.005Z,12.41
2022-11-25T10:51:03.151Z,12.66
2022-11-25T10:53:31.486Z,12.82
2022-11-25T10:56:02.263Z,12.84
2022-11-25T10:58:33.138Z,12.88
2022-11-25T11:01:06.572Z,12.95
2022-11-25T11:03:34.666Z,12.73
2022-11-25T11:06:02.643Z,12.53
2022-11-25T11:08:37.676Z,12.30
2022-11-25T11:11:26.431Z,11.85
2022-11-25T11:14:01.778Z,11.89
2022-11-25T11:16:31.809Z,11.60
2022-11-25T11:19:00.019Z,11.49
2022-11-25T11:21:31.476Z,11.69
2022-11-25T11:23:59.957Z,11.61
2022-11-25T11:26:28.902Z,11.74
2022-11-25T11:29:11.127Z,11.55
2022-11-25T11:31:45.296Z,11.51
2022-11-25T11:34:28.826Z,11.49
2022-11-25T11:37:07.990Z,11.69
2022-11-25T11:39:52.856Z,11.67
2022-11-25T11:42:23.882Z,11.89
2022-11-25T11:45:01.147Z,11.97
2022-11-25T11:47:31.932Z,11.80
2022-11-25T11:50:18.534Z,11.90
2022-11-25T11:52:51.487Z,12.00
2022-11-25T11:55:29.217Z,11.88
2022-11-25T11:58:01.322Z,11.62
2022-11-25T12:00:33.281Z,11.72
2022-11-25T12:03:02.550Z,11.68
2022-11-25T12:05:31.454Z,11.72
2022-11-25T12:08:04.153Z,11.88
2022-11-25T12:10:33.940Z,11.85
2022-11-25T12:13:09.028Z,12.10
2022-11-25T12:15:45.038Z,12.21
2022-11-25T12:18:20.018Z,12.22
2022-11-25T12:20:50.590Z,12.28
2022-11-25T12:23:21.066Z,12.29
2022-11-25T12:25:49.284Z,12.08
2022-11-25T12:28:18.899Z,11.93
2022-11-25T12:30:58.305Z,11.76
2022-11-25T12:33:31.123Z,11.53
2022-11-25T12:36:01.144Z,11.36
2022-11-25T12:38:35.201Z,11.05
2022-11-25T12:41:06.064Z,10.97
2022-11-25T12:43:38.009Z,10.79
2022-11-25T12:46:14.857Z,10.77
2022-11-25T12:48:43.727Z,10.59
2022-11-25T12:51:18.063Z,10.71
2022-11-25T12:53:48.390Z,10.65
2022-11-25T12:56:18.364Z,10.55
2022-11-25T12:58:54.304Z,10.27
2022-11-25T13:01:45.535Z,10.32
2022-11-25T13:04:58.048Z,10.28
2022-11-25T13:07:32.300Z,10.21
2022-11-25T13:10:14.379Z,10.20
2022-11-25T13:12:47.505Z,10.14
2022-11-25T13:15:28.250Z,10.20
2022-11-25T13:18:00.575Z,10.22
2022-11-25T13:20:37.066Z,10.20
2022-11-25T13:23:09.010Z,10.02
2022-11-25T13:25:37.734Z,10.13
2022-11-25T13:28:06.162Z,10.06
2022-11-25T13:30:38.555Z,10.03
2022-11-25T13:33:38.922Z,10.07
2022-11-25T13:36:16.555Z,10.08
2022-11-25T13:39:01.095Z,10.14
2022-11-25T13:41:49.949Z,10.19
2022-11-25T13:44:23.208Z,10.29
2022-11-25T13:46:52.675Z,10.23
2022-11-25T13:49:26.029Z,10.24
2022-11-25T13:51:55.914Z,10.11
2022-11-25T13:54:26.953Z,10.13
2022-11-25T13:57:28.032Z,10.14
2022-11-25T13:59:57.949Z,10.14
2022-11-25T14:02:42.071Z,10.30
2022-11-25T14:05:57.517Z,10.26
2022-11-25T14:08:33.642Z,10.16
2022-11-25T14:11:14.509Z,10.22
2022-11-25T14:13:59.826Z,10.23
2022-11-25T14:16:40.557Z,10.31
2022-11-25T14:19:54.839Z,10.39
2022-11-25T14:22:41.416Z,10.39
2022-11-25T14:25:22.354Z,10.22
2022-11-25T14:27:52.998Z,10.24
2022-11-25T14:30:21.075Z,10.06
2022-11-25T14:32:53.412Z,9.95
2022-11-25T14:35:22.974Z,10.06
2022-11-25T14:37:51.812Z,10.00
2022-11-25T14:40:22.844Z,9.94
2022-11-25T14:42:53.124Z,9.81
2022-11-25T14:45:22.406Z,9.74
2022-11-25T14:47:50.394Z,9.68
2022-11-25T14:50:34.203Z,9.66
2022-11-25T14:53:07.217Z,9.55
2022-11-25T14:55:36.590Z,9.47
2022-11-25T14:58:04.509Z,9.39
2022-11-25T15:00:32.489Z,9.38
2022-11-25T15:03:01.129Z,9.37
2022-11-25T15:05:33.053Z,9.25
2022-11-25T15:08:02.490Z,9.17
2022-11-25T15:10:41.029Z,9.20
2022-11-25T15:13:14.503Z,9.22
2022-11-25T15:15:45.763Z,9.22
2022-11-25T15:18:17.473Z,9.10
2022-11-25T15:20:47.929Z,9.11
2022-11-25T15:23:16.216Z,9.06
2022-11-25T15:25:52.178Z,9.10
2022-11-25T15:28:20.147Z,9.03
2022-11-25T15:30:57.382Z,8.99
2022-11-25T15:33:25.640Z,8.95
2022-11-25T15:35:54.017Z,8.92
2022-11-25T15:38:36.209Z,8.88
2022-11-25T15:41:05.685Z,8.84
2022-11-25T15:43:33.618Z,8.58
2022-11-25T15:46:02.584Z,8.76
2022-11-25T15:48:32.027Z,8.67
2022-11-25T15:51:02.490Z,8.55
2022-11-25T15:53:33.360Z,8.49
2022-11-25T15:56:01.613Z,8.42
2022-11-25T15:58:30.925Z,8.34
2022-11-25T16:01:05.802Z,8.20
2022-11-25T16:03:34.086Z,8.18
2022-11-25T16:06:02.354Z,8.06
2022-11-25T16:08:35.139Z,8.10
2022-11-25T16:11:15.402Z,8.05
2022-11-25T16:13:44.737Z,7.98
2022-11-25T16:16:17.738Z,7.94
2022-11-25T16:18:59.670Z,7.89
2022-11-25T16:21:30.590Z,7.82
2022-11-25T16:24:00.297Z,7.76
2022-11-25T16:26:29.521Z,7.70
2022-11-25T16:29:00.123Z,7.63
2022-11-25T16:31:28.725Z,7.54
2022-11-25T16:33:57.049Z,7.57
2022-11-25T16:36:25.060Z,7.60
2022-11-25T16:38:53.367Z,7.59
2022-11-25T16:41:22.113Z,7.62
2022-11-25T16:43:50.122Z,7.64
2022-11-25T16:46:20.359Z,7.61
2022-11-25T16:48:48.364Z,7.52
2022-11-25T16:51:17.073Z,7.55
2022-11-25T16:53:45.115Z,7.59
2022-11-25T16:56:15.580Z,7.61
2022-11-25T16:58:43.958Z,7.59
2022-11-25T17:01:14.078Z,7.63
2022-11-25T17:03:43.575Z,7.57
2022-11-25T17:06:20.036Z,7.60
2022-11-25T17:08:49.733Z,7.60
2022-11-25T17:11:19.456Z,7.49
2022-11-25T17:13:50.482Z,7.50
2022-11-25T17:16:19.494Z,7.46
2022-11-25T17:18:49.047Z,7.54
2022-11-25T17:21:17.276Z,7.50
2022-11-25T17:23:45.497Z,7.49
2022-11-25T17:26:17.748Z,7.36
2022-11-25T17:28:46.223Z,7.33
2022-11-25T17:31:14.226Z,7.27
2022-11-25T17:33:46.136Z,7.21
2022-11-25T17:36:15.499Z,7.07
2022-11-25T17:38:43.445Z,7.10
2022-11-25T17:41:13.296Z,7.06
2022-11-25T17:43:41.277Z,7.00
2022-11-25T17:46:11.554Z,6.92
2022-11-25T17:48:42.274Z,6.91
2022-11-25T17:51:10.415Z,6.91
2022-11-25T17:53:39.978Z,6.84
2022-11-25T17:56:27.012Z,6.82
2022-11-25T17:58:54.964Z,6.79
2022-11-25T18:01:22.974Z,6.77
2022-11-25T18:03:53.069Z,6.73
2022-11-25T18:06:21.067Z,6.67
2022-11-25T18:08:50.626Z,6.61
2022-11-25T18:11:19.905Z,6.65
2022-11-25T18:13:47.865Z,6.65
2022-11-25T18:16:16.096Z,6.65
2022-11-25T18:18:44.115Z,6.55
2022-11-25T18:21:12.703Z,6.59
2022-11-25T18:23:40.691Z,6.64
2022-11-25T18:26:11.030Z,6.62
2022-11-25T18:28:38.946Z,6.61
2022-11-25T18:31:07.337Z,6.55
2022-11-25T18:33:35.755Z,6.53
2022-11-25T18:36:03.806Z,6.56
2022-11-25T18:38:31.780Z,6.45
2022-11-25T18:40:59.778Z,6.46
2022-11-25T18:43:29.147Z,6.45
2022-11-25T18:45:57.329Z,6.44
2022-11-25T18:48:26.421Z,6.38
2022-11-25T18:50:56.092Z,6.37
2022-11-25T18:53:24.247Z,6.38
2022-11-25T18:55:52.266Z,6.37
2022-11-25T18:58:20.829Z,6.23
2022-11-25T19:00:50.845Z,6.33
2022-11-25T19:03:20.075Z,6.30
2022-11-25T19:05:48.190Z,6.31
2022-11-25T19:08:16.155Z,6.30
2022-11-25T19:10:44.685Z,6.26
2022-11-25T19:13:15.228Z,6.24
2022-11-25T19:15:44.047Z,6.31
2022-11-25T19:18:16.117Z,6.11
2022-11-25T19:20:44.082Z,6.24
2022-11-25T19:23:18.702Z,6.24
2022-11-25T19:25:46.649Z,6.23
2022-11-25T19:28:14.807Z,6.25
2022-11-25T19:30:42.908Z,6.23
2022-11-25T19:33:14.612Z,6.19
2022-11-25T19:35:42.634Z,6.21
2022-11-25T19:38:21.327Z,6.22
2022-11-25T19:40:49.444Z,6.13
2022-11-25T19:43:17.437Z,6.13
2022-11-25T19:45:45.477Z,6.10
2022-11-25T19:48:16.703Z,6.05
2022-11-25T19:50:45.134Z,6.18
2022-11-25T19:53:16.753Z,6.28
2022-11-25T19:55:45.199Z,6.34
2022-11-25T19:58:13.172Z,6.45
2022-11-25T20:00:41.276Z,6.46
2022-11-25T20:03:12.694Z,6.56
2022-11-25T20:05:42.068Z,6.51
2022-11-25T20:08:12.198Z,6.46
2022-11-25T20:10:40.132Z,6.40
2022-11-25T20:13:08.109Z,6.35
2022-11-25T20:15:36.278Z,6.31
2022-11-25T20:18:04.744Z,6.27
2022-11-25T20:20:33.600Z,6.24
2022-11-25T20:23:04.165Z,6.23
2022-11-25T20:25:32.160Z,6.27
2022-11-25T20:28:00.158Z,6.29
2022-11-25T20:30:29.385Z,6.42
2022-11-25T20:32:57.386Z,6.43
2022-11-25T20:35:25.378Z,6.53
2022-11-25T20:37:57.990Z,6.59
2022-11-25T20:40:32.979Z,6.62
2022-11-25T20:43:00.997Z,6.65
2022-11-25T20:45:28.962Z,6.59
2022-11-25T20:47:57.052Z,6.61
2022-11-25T20:50:25.016Z,6.53
2022-11-25T20:52:52.982Z,6.49
2022-11-25T20:55:22.262Z,6.41
2022-11-25T20:57:51.894Z,6.31
2022-11-25T21:00:21.048Z,6.27
2022-11-25T21:02:49.112Z,6.23
2022-11-25T21:05:17.965Z,6.19
2022-11-25T21:07:46.093Z,6.16
2022-11-25T21:10:23.069Z,6.19
2022-11-25T21:12:52.536Z,6.16
2022-11-25T21:15:21.720Z,6.14
2022-11-25T21:17:49.723Z,6.20
2022-11-25T21:20:18.173Z,6.23
2022-11-25T21:22:47.272Z,6.26
2022-11-25T21:25:16.990Z,6.05
2022-11-25T21:27:45.189Z,6.25
2022-11-25T21:30:21.351Z,6.20
2022-11-25T21:32:49.341Z,6.20
2022-11-25T21:35:17.347Z,6.13
2022-11-25T21:37:45.345Z,6.09
2022-11-25T21:40:32.376Z,6.05
2022-11-25T21:43:00.376Z,5.98
2022-11-25T21:45:29.727Z,5.91
2022-11-25T21:47:57.761Z,5.89
2022-11-25T21:50:29.287Z,5.82
2022-11-25T21:52:57.367Z,5.77
2022-11-25T21:55:25.360Z,5.75
2022-11-25T21:57:53.267Z,5.67
2022-11-25T22:00:23.894Z,5.60
2022-11-25T22:02:53.405Z,5.53
2022-11-25T22:05:22.255Z,5.50
2022-11-25T22:07:50.328Z,5.43
2022-11-25T22:10:18.675Z,5.32
2022-11-25T22:12:47.284Z,5.27
2022-11-25T22:15:16.960Z,5.11
2022-11-25T22:17:45.118Z,5.22
2022-11-25T22:20:24.901Z,5.13
2022-11-25T22:22:52.814Z,5.18
2022-11-25T22:25:20.774Z,5.10
2022-11-25T22:27:48.781Z,5.07
2022-11-25T22:30:17.696Z,5.02
2022-11-25T22:32:45.853Z,4.98
2022-11-25T22:35:18.306Z,4.95
2022-11-25T22:37:53.501Z,4.92
2022-11-25T22:40:22.875Z,4.86
2022-11-25T22:42:51.452Z,4.78
2022-11-25T22:45:22.322Z,4.73
2022-11-25T22:47:50.330Z,4.75
2022-11-25T22:50:21.811Z,4.75
2022-11-25T22:52:51.198Z,4.71
2022-11-25T22:55:20.926Z,4.74
2022-11-25T22:57:49.098Z,4.74
2022-11-25T23:00:21.759Z,4.83
2022-11-25T23:02:49.799Z,4.88
2022-11-25T23:05:20.056Z,4.99
2022-11-25T23:07:48.471Z,5.20
2022-11-25T23:10:19.867Z,5.40
2022-11-25T23:12:47.894Z,5.54
2022-11-25T23:15:16.270Z,5.65
2022-11-25T23:17:49.600Z,5.68
2022-11-25T23:20:21.983Z,6.02
2022-11-25T23:22:49.963Z,6.10
2022-11-25T23:25:21.007Z,6.22
2022-11-25T23:27:49.094Z,6.34
2022-11-25T23:30:17.622Z,6.39
2022-11-25T23:32:45.728Z,6.46
2022-11-25T23:35:17.514Z,6.57
2022-11-25T23:37:45.522Z,6.59
2022-11-25T23:40:20.915Z,6.62
2022-11-25T23:42:48.919Z,6.63
2022-11-25T23:45:18.281Z,6.67
2022-11-25T23:47:46.671Z,6.66
2022-11-25T23:50:22.548Z,6.66
2022-11-25T23:52:50.571Z,6.70
2022-11-25T23:55:23.340Z,6.65
2022-11-25T23:57:51.272Z,6.60
